createdAt,value
2019-01-14T00:01:04.624Z,25.50
2019-01-14T00:03:31.423Z,24.23
2019-01-14T00:05:58.230Z,17.90
2019-01-14T00:08:25.336Z,27.27
2019-01-14T00:10:54.379Z,24.23
2019-01-14T00:13:27.474Z,26.90
2019-01-14T00:15:57.712Z,28.17
2019-01-14T00:18:24.725Z,31.33
2019-01-14T00:20:52.082Z,23.53
2019-01-14T00:23:19.419Z,15.70
2019-01-14T00:25:46.459Z,20.37
2019-01-14T00:28:16.331Z,21.57
2019-01-14T00:30:45.774Z,22.93
2019-01-14T00:33:13.167Z,28.93
2019-01-14T00:35:40.321Z,17.27
2019-01-14T00:38:07.211Z,17.60
2019-01-14T00:40:34.092Z,23.20
2019-01-14T00:43:01.802Z,27.20
2019-01-14T00:45:29.451Z,30.93
2019-01-14T00:47:56.403Z,9.67
2019-01-14T00:50:23.348Z,18.10
2019-01-14T00:52:50.316Z,17.77
2019-01-14T00:55:18.500Z,13.67
2019-01-14T00:57:45.975Z,18.27
2019-01-14T01:00:24.709Z,23.27
2019-01-14T01:02:52.053Z,23.63
2019-01-14T01:05:19.455Z,20.40
2019-01-14T01:07:49.316Z,15.73
2019-01-14T01:10:16.595Z,20.07
2019-01-14T01:12:43.843Z,19.10
2019-01-14T01:15:11.494Z,20.00
2019-01-14T01:17:39.416Z,16.53
2019-01-14T01:20:07.012Z,22.23
2019-01-14T01:22:33.865Z,16.93
2019-01-14T01:25:00.735Z,15.53
2019-01-14T01:27:29.552Z,17.83
2019-01-14T01:29:56.675Z,22.07
2019-01-14T01:32:25.737Z,21.77
2019-01-14T01:34:52.887Z,20.43
2019-01-14T01:37:20.456Z,14.97
2019-01-14T01:39:47.450Z,18.83
2019-01-14T01:42:14.219Z,17.77
2019-01-14T01:44:41.040Z,24.37
2019-01-14T01:47:07.853Z,18.67
2019-01-14T01:49:34.657Z,23.50
2019-01-14T01:52:01.443Z,17.77
2019-01-14T01:54:29.249Z,11.50
2019-01-14T01:56:56.216Z,21.70
2019-01-14T01:59:23.259Z,25.47
2019-01-14T02:01:50.329Z,18.03
2019-01-14T02:04:17.569Z,8.87
2019-01-14T02:06:44.535Z,25.10
2019-01-14T02:09:11.553Z,22.57
2019-01-14T02:11:38.327Z,20.27
2019-01-14T02:14:05.528Z,23.30
2019-01-14T02:16:32.737Z,22.17
2019-01-14T02:18:59.870Z,14.23
2019-01-14T02:21:26.704Z,23.83
2019-01-14T02:23:53.484Z,21.70
2019-01-14T02:26:20.293Z,26.07
2019-01-14T02:28:47.212Z,25.43
2019-01-14T02:31:14.422Z,18.30
2019-01-14T02:33:41.379Z,17.13
2019-01-14T02:36:08.855Z,17.63
2019-01-14T02:38:35.631Z,26.13
2019-01-14T02:41:02.563Z,23.20
2019-01-14T02:43:29.382Z,16.80
2019-01-14T02:45:56.155Z,32.20
2019-01-14T02:48:22.927Z,18.73
2019-01-14T02:50:49.748Z,16.40
2019-01-14T02:53:16.519Z,20.37
2019-01-14T02:55:43.296Z,21.47
2019-01-14T02:58:10.184Z,16.23
2019-01-14T03:00:37.033Z,12.90
2019-01-14T03:03:04.132Z,16.00
2019-01-14T03:05:30.927Z,13.17
2019-01-14T03:07:57.701Z,13.70
2019-01-14T03:10:24.463Z,24.60
2019-01-14T03:12:51.513Z,19.93
2019-01-14T03:15:18.807Z,22.73
2019-01-14T03:17:45.682Z,17.20
2019-01-14T03:20:12.726Z,18.67
2019-01-14T03:22:39.531Z,17.33
2019-01-14T03:25:06.697Z,21.10
2019-01-14T03:27:33.510Z,15.50
2019-01-14T03:30:00.309Z,15.60
2019-01-14T03:32:27.081Z,18.50
2019-01-14T03:34:53.885Z,27.13
2019-01-14T03:37:20.659Z,16.30
2019-01-14T03:39:47.427Z,23.23
2019-01-14T03:42:14.289Z,19.10
2019-01-14T03:44:41.054Z,22.53
2019-01-14T03:47:07.875Z,13.20
2019-01-14T03:49:34.820Z,17.90
2019-01-14T03:52:01.858Z,16.33
2019-01-14T03:54:29.127Z,16.70
2019-01-14T03:56:55.964Z,15.83
2019-01-14T03:59:22.797Z,20.67
2019-01-14T04:01:49.820Z,12.00
2019-01-14T04:04:16.696Z,20.63
2019-01-14T04:06:43.588Z,12.37
2019-01-14T04:09:10.457Z,27.17
2019-01-14T04:11:37.446Z,16.93
2019-01-14T04:14:04.219Z,15.30
2019-01-14T04:16:31.105Z,16.17
2019-01-14T04:18:58.000Z,15.23
2019-01-14T04:21:24.837Z,16.07
2019-01-14T04:23:51.628Z,16.57
2019-01-14T04:26:18.550Z,12.87
2019-01-14T04:28:45.357Z,17.27
2019-01-14T04:31:12.349Z,23.40
2019-01-14T04:33:39.163Z,20.47
2019-01-14T04:36:06.038Z,18.83
2019-01-14T04:38:32.932Z,13.33
2019-01-14T04:41:00.062Z,10.17
2019-01-14T04:43:26.855Z,16.53
2019-01-14T04:45:53.660Z,17.23
2019-01-14T04:48:20.479Z,15.80
2019-01-14T04:50:47.275Z,12.53
2019-01-14T04:53:14.081Z,17.10
2019-01-14T04:55:40.887Z,15.00
2019-01-14T04:58:07.747Z,12.13
2019-01-14T05:00:34.661Z,12.13
2019-01-14T05:03:01.543Z,15.77
2019-01-14T05:05:28.645Z,12.37
2019-01-14T05:07:55.628Z,14.23
2019-01-14T05:10:22.572Z,9.23
2019-01-14T05:12:49.483Z,17.33
2019-01-14T05:15:16.284Z,15.17
2019-01-14T05:17:43.288Z,9.63
2019-01-14T05:20:12.103Z,9.87
2019-01-14T05:22:39.129Z,10.10
2019-01-14T05:25:06.609Z,10.17
2019-01-14T05:27:33.421Z,8.73
2019-01-14T05:30:00.223Z,9.03
2019-01-14T05:32:27.037Z,13.60
2019-01-14T05:34:54.018Z,10.50
2019-01-14T05:37:20.792Z,12.77
2019-01-14T05:39:47.750Z,14.63
2019-01-14T05:42:14.544Z,14.93
2019-01-14T05:44:41.357Z,17.20
2019-01-14T05:47:08.196Z,21.80
2019-01-14T05:49:35.007Z,8.50
2019-01-14T05:52:01.795Z,17.27
2019-01-14T05:54:28.641Z,13.33
2019-01-14T05:56:55.460Z,12.90
2019-01-14T05:59:22.263Z,11.87
2019-01-14T06:01:49.069Z,7.90
2019-01-14T06:04:15.917Z,9.33
2019-01-14T06:06:42.907Z,11.60
2019-01-14T06:09:09.980Z,10.63
2019-01-14T06:11:36.845Z,9.00
2019-01-14T06:14:03.642Z,9.93
2019-01-14T06:16:30.529Z,12.03
2019-01-14T06:18:57.332Z,18.43
2019-01-14T06:21:24.136Z,17.73
2019-01-14T06:23:50.948Z,10.37
2019-01-14T06:26:17.723Z,8.57
2019-01-14T06:28:44.508Z,11.83
2019-01-14T06:31:11.360Z,6.90
2019-01-14T06:33:38.164Z,12.80
2019-01-14T06:36:05.389Z,6.40
2019-01-14T06:38:32.542Z,12.00
2019-01-14T06:40:59.303Z,9.90
2019-01-14T06:43:26.110Z,18.27
2019-01-14T06:45:52.917Z,16.93
2019-01-14T06:48:19.721Z,7.37
2019-01-14T06:50:46.482Z,18.50
2019-01-14T06:53:13.481Z,7.90
2019-01-14T06:55:40.500Z,12.00
2019-01-14T06:58:07.428Z,7.90
2019-01-14T07:00:34.236Z,15.80
2019-01-14T07:03:01.359Z,9.63
2019-01-14T07:05:28.165Z,9.10
2019-01-14T07:07:59.493Z,11.53
2019-01-14T07:10:24.901Z,18.63
2019-01-14T07:12:51.868Z,5.30
2019-01-14T07:15:18.949Z,17.40
2019-01-14T07:17:45.822Z,8.47
2019-01-14T07:20:12.957Z,14.43
2019-01-14T07:22:40.036Z,9.17
2019-01-14T07:25:06.982Z,7.20
2019-01-14T07:27:33.753Z,17.20
2019-01-14T07:30:00.600Z,5.47
2019-01-14T07:32:27.469Z,8.80
2019-01-14T07:34:54.255Z,13.77
2019-01-14T07:37:21.119Z,5.87
2019-01-14T07:39:47.900Z,7.37
2019-01-14T07:42:14.685Z,4.97
2019-01-14T07:44:41.483Z,8.73
2019-01-14T07:47:08.288Z,14.87
2019-01-14T07:49:35.118Z,6.70
2019-01-14T07:52:01.939Z,10.10
2019-01-14T07:54:28.837Z,13.83
2019-01-14T07:56:55.746Z,10.77
2019-01-14T07:59:22.781Z,11.93
2019-01-14T08:01:49.586Z,14.23
2019-01-14T08:04:16.483Z,9.53
2019-01-14T08:06:43.273Z,15.63
2019-01-14T08:09:10.043Z,6.00
2019-01-14T08:11:36.855Z,4.53
2019-01-14T08:14:03.923Z,19.93
2019-01-14T08:16:30.695Z,10.33
2019-01-14T08:18:57.500Z,9.10
2019-01-14T08:21:24.323Z,12.33
2019-01-14T08:23:51.121Z,8.50
2019-01-14T08:26:17.894Z,8.87
2019-01-14T08:28:44.683Z,4.63
2019-01-14T08:31:11.480Z,11.77
2019-01-14T08:33:38.611Z,8.37
2019-01-14T08:36:05.452Z,14.40
2019-01-14T08:38:32.221Z,10.77
2019-01-14T08:40:59.433Z,10.00
2019-01-14T08:43:28.112Z,9.93
2019-01-14T08:45:55.516Z,10.40
2019-01-14T08:48:22.326Z,8.80
2019-01-14T08:50:49.132Z,12.67
2019-01-14T08:53:15.921Z,18.10
2019-01-14T08:55:42.761Z,9.10
2019-01-14T08:58:09.566Z,9.63
2019-01-14T09:00:36.480Z,18.37
2019-01-14T09:03:03.252Z,13.80
2019-01-14T09:05:30.280Z,8.07
2019-01-14T09:07:57.055Z,9.87
2019-01-14T09:10:24.135Z,5.30
2019-01-14T09:12:50.923Z,13.30
2019-01-14T09:15:17.703Z,7.37
2019-01-14T09:17:44.689Z,5.73
2019-01-14T09:20:15.526Z,13.43
2019-01-14T09:22:42.428Z,7.30
2019-01-14T09:25:09.224Z,6.50
2019-01-14T09:27:36.127Z,11.70
2019-01-14T09:30:04.480Z,7.63
2019-01-14T09:32:31.531Z,13.30
2019-01-14T09:34:58.688Z,6.80
2019-01-14T09:37:25.463Z,10.57
2019-01-14T09:39:52.240Z,6.20
2019-01-14T09:42:19.109Z,11.57
2019-01-14T09:44:46.619Z,6.53
2019-01-14T09:47:13.461Z,6.63
2019-01-14T09:49:40.481Z,11.40
2019-01-14T09:52:07.287Z,5.67
2019-01-14T09:54:34.096Z,6.53
2019-01-14T09:57:01.030Z,17.30
2019-01-14T09:59:27.830Z,5.97
2019-01-14T10:01:54.635Z,10.67
2019-01-14T10:04:21.467Z,5.67
2019-01-14T10:06:48.268Z,11.50
2019-01-14T10:09:15.060Z,10.70
2019-01-14T10:11:41.980Z,10.37
2019-01-14T10:14:08.771Z,7.10
2019-01-14T10:16:35.841Z,8.60
2019-01-14T10:19:02.757Z,8.83
2019-01-14T10:21:29.588Z,9.17
2019-01-14T10:23:56.347Z,4.93
2019-01-14T10:26:23.235Z,6.90
2019-01-14T10:28:50.079Z,10.13
2019-01-14T10:31:19.922Z,7.80
2019-01-14T10:33:45.881Z,10.60
2019-01-14T10:36:12.764Z,8.90
2019-01-14T10:38:39.736Z,3.03
2019-01-14T10:41:06.733Z,4.40
2019-01-14T10:43:34.085Z,8.33
2019-01-14T10:46:00.873Z,7.97
2019-01-14T10:48:27.914Z,8.83
2019-01-14T10:50:54.820Z,6.60
2019-01-14T10:53:21.647Z,14.30
2019-01-14T10:55:48.483Z,12.60
2019-01-14T10:58:15.385Z,12.00
2019-01-14T11:00:42.203Z,9.53
2019-01-14T11:03:09.124Z,7.87
2019-01-14T11:05:35.953Z,9.30
2019-01-14T11:08:02.857Z,7.80
2019-01-14T11:10:29.702Z,5.33
2019-01-14T11:12:56.620Z,5.80
2019-01-14T11:15:23.523Z,7.13
2019-01-14T11:17:50.564Z,12.03
2019-01-14T11:20:21.789Z,5.70
2019-01-14T11:22:48.554Z,6.10
2019-01-14T11:25:16.435Z,7.73
2019-01-14T11:27:44.368Z,9.07
2019-01-14T11:30:14.161Z,4.47
2019-01-14T11:32:41.229Z,10.47
2019-01-14T11:35:08.140Z,7.70
2019-01-14T11:37:35.719Z,8.47
2019-01-14T11:40:07.303Z,5.87
2019-01-14T11:42:34.423Z,13.20
2019-01-14T11:45:01.248Z,4.40
2019-01-14T11:47:28.044Z,8.67
2019-01-14T11:49:55.739Z,3.40
2019-01-14T11:52:22.601Z,6.90
2019-01-14T11:54:49.383Z,4.23
2019-01-14T11:57:16.259Z,8.77
2019-01-14T11:59:43.055Z,5.10
2019-01-14T12:02:10.265Z,3.43
2019-01-14T12:04:38.280Z,4.23
2019-01-14T12:07:06.760Z,3.40
2019-01-14T12:09:35.499Z,2.27
2019-01-14T12:12:02.547Z,5.47
2019-01-14T12:14:29.556Z,6.57
2019-01-14T12:16:56.426Z,5.47
2019-01-14T12:19:23.269Z,1.90
2019-01-14T12:21:50.074Z,7.50
2019-01-14T12:24:17.107Z,5.20
2019-01-14T12:26:44.781Z,8.77
2019-01-14T12:29:13.406Z,4.40
2019-01-14T12:31:41.990Z,2.60
2019-01-14T12:34:09.335Z,7.43
2019-01-14T12:36:36.457Z,1.60
2019-01-14T12:39:06.295Z,5.00
2019-01-14T12:41:33.139Z,4.43
2019-01-14T12:44:00.049Z,3.50
2019-01-14T12:46:26.913Z,3.33
2019-01-14T12:48:53.730Z,1.73
2019-01-14T12:51:20.538Z,4.17
2019-01-14T12:53:47.781Z,4.07
2019-01-14T12:56:14.717Z,2.10
2019-01-14T12:58:42.491Z,5.30
2019-01-14T13:01:10.231Z,7.70
2019-01-14T13:03:38.046Z,3.50
2019-01-14T13:06:05.613Z,4.60
2019-01-14T13:08:32.528Z,5.83
2019-01-14T13:10:59.579Z,3.60
2019-01-14T13:13:26.669Z,9.60
2019-01-14T13:15:53.554Z,10.37
2019-01-14T13:18:20.363Z,8.83
2019-01-14T13:20:47.172Z,6.67
2019-01-14T13:23:13.986Z,4.50
2019-01-14T13:25:40.838Z,3.63
2019-01-14T13:28:07.705Z,2.70
2019-01-14T13:30:34.735Z,7.07
2019-01-14T13:33:01.503Z,5.20
2019-01-14T13:35:28.367Z,3.27
2019-01-14T13:37:55.371Z,5.40
2019-01-14T13:40:22.235Z,6.10
2019-01-14T13:42:49.198Z,1.97
2019-01-14T13:45:16.686Z,1.70
2019-01-14T13:47:43.671Z,3.40
2019-01-14T13:50:11.366Z,4.70
2019-01-14T13:52:38.169Z,15.50
2019-01-14T13:55:05.295Z,5.07
2019-01-14T13:57:32.302Z,3.10
2019-01-14T13:59:59.213Z,9.70
2019-01-14T14:02:26.080Z,7.80
2019-01-14T14:04:52.880Z,10.10
2019-01-14T14:07:19.763Z,5.80
2019-01-14T14:09:47.594Z,6.33
2019-01-14T14:12:14.478Z,19.40
2019-01-14T14:14:41.341Z,4.47
2019-01-14T14:17:08.123Z,4.43
2019-01-14T14:19:35.008Z,7.10
2019-01-14T14:22:01.835Z,4.40
2019-01-14T14:24:28.684Z,2.53
2019-01-14T14:26:55.534Z,6.83
2019-01-14T14:29:22.380Z,6.33
2019-01-14T14:31:49.236Z,17.00
2019-01-14T14:34:16.015Z,8.60
2019-01-14T14:36:42.898Z,8.47
2019-01-14T14:39:09.744Z,4.43
2019-01-14T14:41:36.573Z,5.93
2019-01-14T14:44:03.430Z,5.03
2019-01-14T14:46:30.235Z,6.90
2019-01-14T14:48:57.085Z,9.50
2019-01-14T14:51:23.907Z,12.70
2019-01-14T14:53:50.826Z,5.40
2019-01-14T14:56:17.652Z,4.40
2019-01-14T14:58:44.656Z,5.60
2019-01-14T15:01:11.811Z,4.67
2019-01-14T15:03:38.881Z,6.80
2019-01-14T15:06:05.721Z,3.50
2019-01-14T15:08:32.545Z,6.27
2019-01-14T15:10:59.379Z,5.33
2019-01-14T15:13:26.338Z,4.50
2019-01-14T15:15:53.275Z,9.67
2019-01-14T15:18:20.186Z,6.30
2019-01-14T15:20:47.384Z,3.57
2019-01-14T15:23:15.539Z,7.03
2019-01-14T15:25:42.383Z,7.13
2019-01-14T15:28:09.394Z,2.77
2019-01-14T15:30:36.278Z,8.53
2019-01-14T15:33:03.423Z,4.80
2019-01-14T15:35:30.416Z,8.13
2019-01-14T15:37:57.507Z,5.70
2019-01-14T15:40:24.360Z,10.30
2019-01-14T15:42:51.282Z,8.57
2019-01-14T15:45:18.688Z,5.43
2019-01-14T15:47:45.547Z,6.53
2019-01-14T15:50:12.581Z,6.20
2019-01-14T15:52:39.347Z,9.27
2019-01-14T15:55:07.311Z,9.03
2019-01-14T15:57:34.145Z,7.40
2019-01-14T16:00:00.957Z,7.00
2019-01-14T16:02:28.048Z,5.80
2019-01-14T16:04:54.976Z,2.90
2019-01-14T16:07:21.825Z,5.10
2019-01-14T16:09:48.668Z,4.43
2019-01-14T16:12:15.507Z,7.97
2019-01-14T16:14:42.337Z,8.20
2019-01-14T16:17:09.258Z,2.97
2019-01-14T16:19:36.164Z,5.40
2019-01-14T16:22:03.214Z,3.00
2019-01-14T16:24:30.363Z,5.60
2019-01-14T16:26:57.219Z,3.17
2019-01-14T16:29:24.011Z,4.90
2019-01-14T16:31:50.868Z,5.93
2019-01-14T16:34:17.744Z,4.03
2019-01-14T16:36:44.592Z,9.47
2019-01-14T16:39:11.482Z,2.23
2019-01-14T16:41:38.697Z,9.83
2019-01-14T16:44:05.604Z,10.27
2019-01-14T16:46:32.409Z,9.30
2019-01-14T16:48:59.283Z,6.47
2019-01-14T16:51:26.136Z,6.03
2019-01-14T16:53:52.955Z,5.90
2019-01-14T16:56:19.831Z,4.87
2019-01-14T16:58:46.648Z,4.07
2019-01-14T17:01:13.500Z,4.53
2019-01-14T17:03:40.364Z,4.97
2019-01-14T17:06:07.332Z,13.23
2019-01-14T17:08:34.123Z,4.53
2019-01-14T17:11:00.977Z,2.30
2019-01-14T17:13:27.832Z,4.13
2019-01-14T17:15:54.631Z,7.70
2019-01-14T17:18:21.516Z,6.07
2019-01-14T17:20:48.541Z,8.37
2019-01-14T17:23:15.367Z,5.30
2019-01-14T17:25:42.256Z,6.97
2019-01-14T17:28:09.052Z,5.57
2019-01-14T17:30:36.161Z,10.20
2019-01-14T17:33:03.080Z,2.90
2019-01-14T17:35:29.888Z,8.03
2019-01-14T17:37:56.710Z,4.93
2019-01-14T17:40:23.503Z,6.40
2019-01-14T17:42:50.533Z,7.17
2019-01-14T17:45:17.368Z,8.03
2019-01-14T17:47:44.382Z,10.03
2019-01-14T17:50:12.257Z,3.37
2019-01-14T17:52:39.156Z,9.13
2019-01-14T17:55:06.161Z,11.73
2019-01-14T17:57:32.938Z,4.97
2019-01-14T17:59:59.712Z,5.30
2019-01-14T18:02:26.512Z,15.73
2019-01-14T18:04:53.372Z,6.90
2019-01-14T18:07:20.136Z,7.60
2019-01-14T18:09:47.149Z,8.30
2019-01-14T18:12:14.038Z,4.40
2019-01-14T18:14:40.845Z,10.93
2019-01-14T18:17:07.673Z,8.13
2019-01-14T18:19:34.444Z,6.53
2019-01-14T18:22:01.292Z,5.93
2019-01-14T18:24:28.133Z,10.17
2019-01-14T18:26:54.951Z,5.73
2019-01-14T18:29:22.164Z,11.33
2019-01-14T18:31:49.615Z,9.10
2019-01-14T18:34:16.404Z,4.13
2019-01-14T18:36:43.168Z,7.23
2019-01-14T18:39:10.181Z,9.90
2019-01-14T18:41:36.982Z,8.03
2019-01-14T18:44:03.791Z,14.53
2019-01-14T18:46:30.651Z,9.20
2019-01-14T18:48:57.476Z,9.00
2019-01-14T18:51:24.269Z,13.53
2019-01-14T18:53:51.092Z,9.30
2019-01-14T18:56:17.871Z,12.73
2019-01-14T18:58:44.736Z,11.27
2019-01-14T19:01:11.782Z,9.70
2019-01-14T19:03:38.600Z,9.57
2019-01-14T19:06:05.479Z,12.27
2019-01-14T19:08:32.434Z,15.23
2019-01-14T19:10:59.220Z,12.53
2019-01-14T19:13:26.148Z,14.70
2019-01-14T19:15:53.053Z,14.03
2019-01-14T19:18:19.854Z,9.50
2019-01-14T19:20:46.662Z,11.20
2019-01-14T19:23:13.503Z,7.00
2019-01-14T19:25:40.671Z,9.77
2019-01-14T19:28:07.504Z,9.80
2019-01-14T19:30:34.655Z,11.23
2019-01-14T19:33:01.420Z,11.47
2019-01-14T19:35:28.244Z,4.23
2019-01-14T19:37:55.327Z,7.73
2019-01-14T19:40:22.148Z,9.37
2019-01-14T19:42:49.240Z,15.47
2019-01-14T19:45:18.010Z,19.20
2019-01-14T19:47:44.925Z,9.87
2019-01-14T19:50:13.268Z,11.90
2019-01-14T19:52:40.131Z,11.47
2019-01-14T19:55:07.100Z,10.37
2019-01-14T19:57:33.951Z,16.53
2019-01-14T20:00:00.927Z,22.50
2019-01-14T20:02:29.897Z,10.53
2019-01-14T20:04:57.020Z,10.67
2019-01-14T20:07:23.856Z,7.47
2019-01-14T20:09:50.652Z,11.27
2019-01-14T20:12:18.480Z,7.60
2019-01-14T20:14:45.694Z,12.60
2019-01-14T20:17:12.598Z,10.97
2019-01-14T20:19:39.372Z,10.23
2019-01-14T20:22:06.211Z,10.97
2019-01-14T20:24:35.107Z,15.93
2019-01-14T20:27:01.899Z,12.77
2019-01-14T20:29:28.708Z,11.00
2019-01-14T20:31:55.733Z,16.70
2019-01-14T20:34:22.523Z,15.20
2019-01-14T20:36:50.066Z,13.47
2019-01-14T20:39:16.943Z,10.47
2019-01-14T20:41:44.041Z,15.20
2019-01-14T20:44:10.880Z,16.13
2019-01-14T20:46:37.716Z,17.70
2019-01-14T20:49:04.499Z,16.97
2019-01-14T20:51:31.305Z,13.07
2019-01-14T20:54:00.930Z,12.20
2019-01-14T20:56:27.884Z,13.47
2019-01-14T20:58:54.820Z,20.47
2019-01-14T21:01:22.389Z,21.40
2019-01-14T21:03:51.270Z,14.17
2019-01-14T21:06:18.260Z,12.93
2019-01-14T21:08:45.137Z,14.93
2019-01-14T21:11:11.951Z,15.47
2019-01-14T21:13:38.800Z,18.50
2019-01-14T21:16:05.868Z,17.13
2019-01-14T21:18:32.732Z,21.60
2019-01-14T21:20:59.543Z,9.90
2019-01-14T21:23:26.366Z,17.97
2019-01-14T21:25:53.540Z,9.70
2019-01-14T21:28:20.422Z,22.63
2019-01-14T21:30:47.873Z,8.73
2019-01-14T21:33:14.893Z,18.33
2019-01-14T21:35:41.882Z,20.20
2019-01-14T21:38:08.783Z,14.37
2019-01-14T21:40:35.753Z,22.00
2019-01-14T21:43:02.624Z,10.70
2019-01-14T21:45:29.634Z,11.50
2019-01-14T21:47:56.489Z,9.57
2019-01-14T21:50:23.406Z,9.53
2019-01-14T21:52:50.436Z,11.73
2019-01-14T21:55:19.301Z,16.93
2019-01-14T21:57:46.240Z,11.10
2019-01-14T22:00:14.394Z,9.67
2019-01-14T22:02:41.391Z,10.60
2019-01-14T22:05:09.284Z,17.00
2019-01-14T22:07:36.223Z,9.73
2019-01-14T22:10:03.949Z,9.50
2019-01-14T22:12:30.864Z,10.57
2019-01-14T22:14:57.937Z,22.80
2019-01-14T22:17:24.917Z,13.10
2019-01-14T22:19:52.523Z,16.63
2019-01-14T22:22:19.506Z,10.57
2019-01-14T22:24:47.341Z,10.03
2019-01-14T22:27:15.214Z,10.07
2019-01-14T22:29:42.713Z,9.20
2019-01-14T22:32:09.946Z,11.20
2019-01-14T22:34:37.227Z,11.37
2019-01-14T22:37:04.517Z,14.00
2019-01-14T22:39:32.240Z,14.00
2019-01-14T22:42:00.269Z,24.30
2019-01-14T22:44:27.201Z,15.63
2019-01-14T22:46:54.221Z,17.57
2019-01-14T22:49:21.902Z,16.07
2019-01-14T22:51:49.463Z,17.97
2019-01-14T22:54:16.971Z,10.13
2019-01-14T22:56:43.997Z,10.43
2019-01-14T22:59:11.733Z,26.03
2019-01-14T23:01:45.075Z,10.20
2019-01-14T23:04:12.181Z,14.23
2019-01-14T23:06:39.242Z,12.77
2019-01-14T23:09:06.938Z,19.53
2019-01-14T23:11:33.769Z,16.03
2019-01-14T23:14:00.678Z,16.30
2019-01-14T23:16:28.041Z,9.90
2019-01-14T23:18:55.470Z,14.17
2019-01-14T23:21:22.424Z,16.50
2019-01-14T23:23:49.343Z,12.80
2019-01-14T23:26:16.248Z,12.53
2019-01-14T23:28:43.136Z,12.40
2019-01-14T23:31:09.948Z,14.10
2019-01-14T23:33:37.077Z,14.13
2019-01-14T23:36:04.075Z,13.10
2019-01-14T23:38:30.900Z,12.20
2019-01-14T23:40:57.836Z,13.67
2019-01-14T23:43:24.737Z,5.93
2019-01-14T23:45:51.590Z,16.33
2019-01-14T23:48:19.442Z,16.27
2019-01-14T23:50:50.348Z,13.90
2019-01-14T23:53:17.419Z,14.50
2019-01-14T23:55:44.664Z,15.43
2019-01-14T23:58:11.444Z,10.67
